sensor_id;sensor_type;location;lat;lon;timestamp;P1;durP1;ratioP1;P2;durP2;ratioP2
65835;SDS011;52595;51.608;7.216;2023-02-01T00:02:11;26.70;;;8.07;;
65835;SDS011;52595;51.608;7.216;2023-02-01T00:04:36;32.75;;;9.70;;
65835;SDS011;52595;51.608;7.216;2023-02-01T00:07:01;22.85;;;9.02;;
65835;SDS011;52595;51.608;7.216;2023-02-01T00:09:27;23.58;;;7.80;;
65835;SDS011;52595;51.608;7.216;2023-02-01T00:11:52;18.92;;;7.70;;
65835;SDS011;52595;51.608;7.216;2023-02-01T00:14:18;23.73;;;8.52;;
65835;SDS011;52595;51.608;7.216;2023-02-01T00:16:43;20.15;;;8.43;;
65835;SDS011;52595;51.608;7.216;2023-02-01T00:19:12;16.42;;;6.05;;
65835;SDS011;52595;51.608;7.216;2023-02-01T00:21:40;18.45;;;6.53;;
65835;SDS011;52595;51.608;7.216;2023-02-01T00:24:06;22.45;;;6.38;;
65835;SDS011;52595;51.608;7.216;2023-02-01T00:26:36;19.63;;;5.78;;
65835;SDS011;52595;51.608;7.216;2023-02-01T00:29:08;14.15;;;5.00;;
65835;SDS011;52595;51.608;7.216;2023-02-01T00:31:36;18.88;;;4.72;;
65835;SDS011;52595;51.608;7.216;2023-02-01T00:34:02;13.45;;;4.25;;
65835;SDS011;52595;51.608;7.216;2023-02-01T00:36:28;12.70;;;4.05;;
65835;SDS011;52595;51.608;7.216;2023-02-01T00:38:54;16.05;;;4.10;;
65835;SDS011;52595;51.608;7.216;2023-02-01T00:41:20;14.63;;;3.85;;
65835;SDS011;52595;51.608;7.216;2023-02-01T00:43:47;12.48;;;3.55;;
65835;SDS011;52595;51.608;7.216;2023-02-01T00:46:13;12.23;;;3.85;;
65835;SDS011;52595;51.608;7.216;2023-02-01T00:48:40;15.07;;;3.75;;
65835;SDS011;52595;51.608;7.216;2023-02-01T00:51:07;16.13;;;3.60;;
65835;SDS011;52595;51.608;7.216;2023-02-01T00:53:37;15.70;;;3.22;;
65835;SDS011;52595;51.608;7.216;2023-02-01T00:56:03;13.32;;;2.97;;
65835;SDS011;52595;51.608;7.216;2023-02-01T00:58:28;16.67;;;3.03;;
65835;SDS011;52595;51.608;7.216;2023-02-01T01:01:10;11.10;;;2.72;;
65835;SDS011;52595;51.608;7.216;2023-02-01T01:03:43;7.32;;;2.08;;
65835;SDS011;52595;51.608;7.216;2023-02-01T01:06:12;26.80;;;3.40;;
65835;SDS011;52595;51.608;7.216;2023-02-01T01:08:39;14.75;;;3.47;;
65835;SDS011;52595;51.608;7.216;2023-02-01T01:11:12;12.65;;;2.83;;
65835;SDS011;52595;51.608;7.216;2023-02-01T01:13:40;14.02;;;3.13;;
65835;SDS011;52595;51.608;7.216;2023-02-01T01:16:06;7.90;;;2.50;;
65835;SDS011;52595;51.608;7.216;2023-02-01T01:18:33;8.15;;;2.42;;
65835;SDS011;52595;51.608;7.216;2023-02-01T01:21:00;21.70;;;3.15;;
65835;SDS011;52595;51.608;7.216;2023-02-01T01:23:26;11.73;;;2.40;;
65835;SDS011;52595;51.608;7.216;2023-02-01T01:25:52;17.60;;;3.17;;
65835;SDS011;52595;51.608;7.216;2023-02-01T01:28:17;9.43;;;2.10;;
65835;SDS011;52595;51.608;7.216;2023-02-01T01:30:43;12.25;;;2.80;;
65835;SDS011;52595;51.608;7.216;2023-02-01T01:33:08;15.50;;;3.05;;
65835;SDS011;52595;51.608;7.216;2023-02-01T01:35:34;8.52;;;2.67;;
65835;SDS011;52595;51.608;7.216;2023-02-01T01:38:00;8.60;;;2.60;;
65835;SDS011;52595;51.608;7.216;2023-02-01T01:40:26;3.63;;;1.52;;
65835;SDS011;52595;51.608;7.216;2023-02-01T01:42:52;8.93;;;2.28;;
65835;SDS011;52595;51.608;7.216;2023-02-01T01:45:29;14.70;;;3.25;;
65835;SDS011;52595;51.608;7.216;2023-02-01T01:48:02;17.08;;;2.80;;
65835;SDS011;52595;51.608;7.216;2023-02-01T01:51:04;15.98;;;2.58;;
65835;SDS011;52595;51.608;7.216;2023-02-01T01:53:27;15.90;;;2.95;;
65835;SDS011;52595;51.608;7.216;2023-02-01T01:55:56;11.82;;;2.85;;
65835;SDS011;52595;51.608;7.216;2023-02-01T01:58:23;11.40;;;2.78;;
65835;SDS011;52595;51.608;7.216;2023-02-01T02:00:51;7.53;;;2.45;;
65835;SDS011;52595;51.608;7.216;2023-02-01T02:03:18;7.53;;;2.22;;
65835;SDS011;52595;51.608;7.216;2023-02-01T02:05:47;14.43;;;2.92;;
65835;SDS011;52595;51.608;7.216;2023-02-01T02:08:14;13.80;;;3.72;;
65835;SDS011;52595;51.608;7.216;2023-02-01T02:10:40;11.88;;;3.30;;
65835;SDS011;52595;51.608;7.216;2023-02-01T02:13:24;7.72;;;2.28;;
65835;SDS011;52595;51.608;7.216;2023-02-01T02:24:22;13.15;;;2.85;;
65835;SDS011;52595;51.608;7.216;2023-02-01T02:33:11;10.25;;;3.10;;
65835;SDS011;52595;51.608;7.216;2023-02-01T02:38:36;8.65;;;2.33;;
65835;SDS011;52595;51.608;7.216;2023-02-01T02:47:23;11.88;;;3.28;;
65835;SDS011;52595;51.608;7.216;2023-02-01T02:49:56;17.83;;;3.33;;
65835;SDS011;52595;51.608;7.216;2023-02-01T02:53:30;9.90;;;2.72;;
65835;SDS011;52595;51.608;7.216;2023-02-01T02:55:57;22.52;;;3.63;;
65835;SDS011;52595;51.608;7.216;2023-02-01T02:58:43;8.50;;;2.55;;
65835;SDS011;52595;51.608;7.216;2023-02-01T03:01:29;9.88;;;3.03;;
65835;SDS011;52595;51.608;7.216;2023-02-01T03:04:14;10.45;;;2.53;;
65835;SDS011;52595;51.608;7.216;2023-02-01T03:06:42;12.68;;;3.20;;
65835;SDS011;52595;51.608;7.216;2023-02-01T03:09:10;12.05;;;2.83;;
65835;SDS011;52595;51.608;7.216;2023-02-01T03:12:01;7.00;;;2.47;;
65835;SDS011;52595;51.608;7.216;2023-02-01T03:14:51;13.55;;;3.13;;
65835;SDS011;52595;51.608;7.216;2023-02-01T03:17:22;9.52;;;2.55;;
65835;SDS011;52595;51.608;7.216;2023-02-01T03:19:55;9.93;;;2.85;;
65835;SDS011;52595;51.608;7.216;2023-02-01T03:22:27;7.97;;;1.83;;
65835;SDS011;52595;51.608;7.216;2023-02-01T03:24:59;11.95;;;2.80;;
65835;SDS011;52595;51.608;7.216;2023-02-01T03:27:51;7.72;;;2.30;;
65835;SDS011;52595;51.608;7.216;2023-02-01T03:30:23;10.80;;;2.10;;
65835;SDS011;52595;51.608;7.216;2023-02-01T03:32:58;6.72;;;2.05;;
65835;SDS011;52595;51.608;7.216;2023-02-01T03:35:45;12.88;;;2.60;;
65835;SDS011;52595;51.608;7.216;2023-02-01T03:38:22;11.02;;;2.30;;
65835;SDS011;52595;51.608;7.216;2023-02-01T03:46:32;10.18;;;2.60;;
65835;SDS011;52595;51.608;7.216;2023-02-01T03:49:01;10.70;;;2.45;;
65835;SDS011;52595;51.608;7.216;2023-02-01T03:51:31;11.32;;;2.40;;
65835;SDS011;52595;51.608;7.216;2023-02-01T03:53:57;15.48;;;3.63;;
65835;SDS011;52595;51.608;7.216;2023-02-01T03:56:26;9.27;;;2.55;;
65835;SDS011;52595;51.608;7.216;2023-02-01T03:58:53;12.20;;;2.47;;
65835;SDS011;52595;51.608;7.216;2023-02-01T04:01:25;8.52;;;2.22;;
65835;SDS011;52595;51.608;7.216;2023-02-01T04:03:52;7.88;;;2.30;;
65835;SDS011;52595;51.608;7.216;2023-02-01T04:06:17;11.25;;;2.47;;
65835;SDS011;52595;51.608;7.216;2023-02-01T04:08:43;9.70;;;2.30;;
65835;SDS011;52595;51.608;7.216;2023-02-01T04:11:08;15.43;;;2.70;;
65835;SDS011;52595;51.608;7.216;2023-02-01T04:13:34;6.68;;;2.00;;
65835;SDS011;52595;51.608;7.216;2023-02-01T04:15:59;8.88;;;2.17;;
65835;SDS011;52595;51.608;7.216;2023-02-01T04:18:25;12.95;;;2.20;;
65835;SDS011;52595;51.608;7.216;2023-02-01T04:20:50;10.65;;;2.40;;
65835;SDS011;52595;51.608;7.216;2023-02-01T04:23:15;10.02;;;2.30;;
65835;SDS011;52595;51.608;7.216;2023-02-01T04:25:41;14.93;;;2.70;;
65835;SDS011;52595;51.608;7.216;2023-02-01T04:28:06;10.85;;;2.30;;
65835;SDS011;52595;51.608;7.216;2023-02-01T04:30:32;14.65;;;2.67;;
65835;SDS011;52595;51.608;7.216;2023-02-01T04:32:58;8.00;;;2.28;;
65835;SDS011;52595;51.608;7.216;2023-02-01T04:35:23;9.60;;;2.80;;
65835;SDS011;52595;51.608;7.216;2023-02-01T04:37:48;9.15;;;2.53;;
65835;SDS011;52595;51.608;7.216;2023-02-01T04:40:14;9.70;;;2.30;;
65835;SDS011;52595;51.608;7.216;2023-02-01T04:42:39;12.93;;;2.70;;
65835;SDS011;52595;51.608;7.216;2023-02-01T04:45:05;12.65;;;2.30;;
65835;SDS011;52595;51.608;7.216;2023-02-01T04:47:31;12.57;;;4.20;;
65835;SDS011;52595;51.608;7.216;2023-02-01T04:49:56;11.43;;;3.20;;
65835;SDS011;52595;51.608;7.216;2023-02-01T04:52:21;8.80;;;2.50;;
65835;SDS011;52595;51.608;7.216;2023-02-01T04:54:47;15.40;;;2.58;;
65835;SDS011;52595;51.608;7.216;2023-02-01T04:57:12;9.50;;;2.50;;
65835;SDS011;52595;51.608;7.216;2023-02-01T04:59:39;13.80;;;2.80;;
65835;SDS011;52595;51.608;7.216;2023-02-01T05:02:04;13.73;;;2.50;;
65835;SDS011;52595;51.608;7.216;2023-02-01T05:04:29;10.77;;;2.67;;
65835;SDS011;52595;51.608;7.216;2023-02-01T05:06:55;11.07;;;2.95;;
65835;SDS011;52595;51.608;7.216;2023-02-01T05:09:20;13.02;;;2.60;;
65835;SDS011;52595;51.608;7.216;2023-02-01T05:11:46;18.75;;;3.78;;
65835;SDS011;52595;51.608;7.216;2023-02-01T05:14:31;15.50;;;2.65;;
65835;SDS011;52595;51.608;7.216;2023-02-01T05:16:56;25.70;;;4.63;;
65835;SDS011;52595;51.608;7.216;2023-02-01T05:19:21;18.27;;;3.67;;
65835;SDS011;52595;51.608;7.216;2023-02-01T05:21:47;11.00;;;2.42;;
65835;SDS011;52595;51.608;7.216;2023-02-01T05:24:12;13.35;;;2.63;;
65835;SDS011;52595;51.608;7.216;2023-02-01T05:26:41;10.73;;;2.53;;
65835;SDS011;52595;51.608;7.216;2023-02-01T05:29:08;16.35;;;2.90;;
65835;SDS011;52595;51.608;7.216;2023-02-01T05:31:34;11.48;;;2.28;;
65835;SDS011;52595;51.608;7.216;2023-02-01T05:34:00;5.55;;;2.10;;
65835;SDS011;52595;51.608;7.216;2023-02-01T05:36:25;13.40;;;2.40;;
65835;SDS011;52595;51.608;7.216;2023-02-01T05:38:51;11.38;;;2.50;;
65835;SDS011;52595;51.608;7.216;2023-02-01T05:41:16;19.98;;;2.90;;
65835;SDS011;52595;51.608;7.216;2023-02-01T05:43:42;13.38;;;3.33;;
65835;SDS011;52595;51.608;7.216;2023-02-01T05:46:07;10.60;;;2.85;;
65835;SDS011;52595;51.608;7.216;2023-02-01T05:48:35;12.07;;;2.45;;
65835;SDS011;52595;51.608;7.216;2023-02-01T05:51:01;13.52;;;3.28;;
65835;SDS011;52595;51.608;7.216;2023-02-01T05:53:26;20.65;;;4.80;;
65835;SDS011;52595;51.608;7.216;2023-02-01T05:55:51;11.25;;;2.70;;
65835;SDS011;52595;51.608;7.216;2023-02-01T05:58:17;14.20;;;2.65;;
65835;SDS011;52595;51.608;7.216;2023-02-01T06:00:42;11.68;;;2.55;;
65835;SDS011;52595;51.608;7.216;2023-02-01T06:03:07;10.98;;;2.47;;
65835;SDS011;52595;51.608;7.216;2023-02-01T06:05:33;16.90;;;3.40;;
65835;SDS011;52595;51.608;7.216;2023-02-01T06:07:58;8.50;;;2.20;;
65835;SDS011;52595;51.608;7.216;2023-02-01T06:10:24;8.30;;;2.55;;
65835;SDS011;52595;51.608;7.216;2023-02-01T06:12:49;14.52;;;3.88;;
65835;SDS011;52595;51.608;7.216;2023-02-01T06:15:15;11.32;;;2.83;;
65835;SDS011;52595;51.608;7.216;2023-02-01T06:17:41;6.03;;;2.15;;
65835;SDS011;52595;51.608;7.216;2023-02-01T06:20:08;10.20;;;2.60;;
65835;SDS011;52595;51.608;7.216;2023-02-01T06:22:34;11.35;;;2.88;;
65835;SDS011;52595;51.608;7.216;2023-02-01T06:25:01;11.05;;;2.67;;
65835;SDS011;52595;51.608;7.216;2023-02-01T06:27:27;12.00;;;2.83;;
65835;SDS011;52595;51.608;7.216;2023-02-01T06:29:53;7.97;;;2.28;;
65835;SDS011;52595;51.608;7.216;2023-02-01T06:32:20;14.68;;;2.88;;
65835;SDS011;52595;51.608;7.216;2023-02-01T06:34:45;13.10;;;2.22;;
65835;SDS011;52595;51.608;7.216;2023-02-01T06:37:10;15.02;;;3.00;;
65835;SDS011;52595;51.608;7.216;2023-02-01T06:39:36;11.02;;;2.30;;
65835;SDS011;52595;51.608;7.216;2023-02-01T06:42:02;12.68;;;2.88;;
65835;SDS011;52595;51.608;7.216;2023-02-01T06:44:28;10.13;;;3.28;;
65835;SDS011;52595;51.608;7.216;2023-02-01T06:46:53;12.40;;;2.95;;
65835;SDS011;52595;51.608;7.216;2023-02-01T06:49:19;13.40;;;3.08;;
65835;SDS011;52595;51.608;7.216;2023-02-01T06:51:45;8.35;;;2.50;;
65835;SDS011;52595;51.608;7.216;2023-02-01T06:54:10;23.23;;;4.15;;
65835;SDS011;52595;51.608;7.216;2023-02-01T06:56:36;15.50;;;2.70;;
65835;SDS011;52595;51.608;7.216;2023-02-01T06:59:03;13.65;;;3.40;;
65835;SDS011;52595;51.608;7.216;2023-02-01T07:01:29;11.25;;;2.58;;
65835;SDS011;52595;51.608;7.216;2023-02-01T07:03:54;11.48;;;2.45;;
65835;SDS011;52595;51.608;7.216;2023-02-01T07:06:20;10.05;;;2.70;;
65835;SDS011;52595;51.608;7.216;2023-02-01T07:08:45;16.83;;;2.92;;
65835;SDS011;52595;51.608;7.216;2023-02-01T07:11:11;10.48;;;2.70;;
65835;SDS011;52595;51.608;7.216;2023-02-01T07:13:38;10.10;;;2.53;;
65835;SDS011;52595;51.608;7.216;2023-02-01T07:16:08;14.10;;;3.17;;
65835;SDS011;52595;51.608;7.216;2023-02-01T07:18:35;13.57;;;2.60;;
65835;SDS011;52595;51.608;7.216;2023-02-01T07:21:01;14.93;;;3.38;;
65835;SDS011;52595;51.608;7.216;2023-02-01T07:23:26;10.70;;;2.70;;
65835;SDS011;52595;51.608;7.216;2023-02-01T07:25:53;15.15;;;2.78;;
65835;SDS011;52595;51.608;7.216;2023-02-01T07:28:22;12.10;;;2.58;;
65835;SDS011;52595;51.608;7.216;2023-02-01T07:30:49;16.98;;;3.50;;
65835;SDS011;52595;51.608;7.216;2023-02-01T07:33:19;15.43;;;3.78;;
65835;SDS011;52595;51.608;7.216;2023-02-01T07:35:46;17.05;;;3.35;;
65835;SDS011;52595;51.608;7.216;2023-02-01T07:38:12;12.18;;;3.05;;
65835;SDS011;52595;51.608;7.216;2023-02-01T07:40:38;26.55;;;3.70;;
65835;SDS011;52595;51.608;7.216;2023-02-01T07:43:03;13.23;;;2.72;;
65835;SDS011;52595;51.608;7.216;2023-02-01T07:45:31;13.45;;;3.10;;
65835;SDS011;52595;51.608;7.216;2023-02-01T07:47:56;12.73;;;2.90;;
65835;SDS011;52595;51.608;7.216;2023-02-01T07:50:22;22.65;;;3.15;;
65835;SDS011;52595;51.608;7.216;2023-02-01T07:52:47;14.50;;;3.67;;
65835;SDS011;52595;51.608;7.216;2023-02-01T07:55:13;9.80;;;2.65;;
65835;SDS011;52595;51.608;7.216;2023-02-01T07:57:38;17.55;;;3.13;;
65835;SDS011;52595;51.608;7.216;2023-02-01T08:00:04;8.23;;;2.78;;
65835;SDS011;52595;51.608;7.216;2023-02-01T08:02:48;17.35;;;3.17;;
65835;SDS011;52595;51.608;7.216;2023-02-01T08:05:13;10.73;;;2.80;;
65835;SDS011;52595;51.608;7.216;2023-02-01T08:07:38;11.35;;;2.70;;
65835;SDS011;52595;51.608;7.216;2023-02-01T08:10:04;19.50;;;3.47;;
65835;SDS011;52595;51.608;7.216;2023-02-01T08:15:01;12.23;;;3.47;;
65835;SDS011;52595;51.608;7.216;2023-02-01T08:17:26;17.92;;;3.72;;
65835;SDS011;52595;51.608;7.216;2023-02-01T08:19:53;42.20;;;4.03;;
65835;SDS011;52595;51.608;7.216;2023-02-01T08:22:18;10.63;;;3.90;;
65835;SDS011;52595;51.608;7.216;2023-02-01T08:24:44;16.92;;;4.07;;
65835;SDS011;52595;51.608;7.216;2023-02-01T08:27:13;9.25;;;2.60;;
65835;SDS011;52595;51.608;7.216;2023-02-01T08:29:38;15.68;;;3.38;;
65835;SDS011;52595;51.608;7.216;2023-02-01T08:32:04;17.65;;;3.58;;
65835;SDS011;52595;51.608;7.216;2023-02-01T08:34:30;10.18;;;2.90;;
65835;SDS011;52595;51.608;7.216;2023-02-01T08:36:55;12.23;;;3.55;;
65835;SDS011;52595;51.608;7.216;2023-02-01T08:39:24;15.02;;;3.53;;
65835;SDS011;52595;51.608;7.216;2023-02-01T08:41:50;12.63;;;2.85;;
65835;SDS011;52595;51.608;7.216;2023-02-01T08:44:33;13.68;;;3.33;;
65835;SDS011;52595;51.608;7.216;2023-02-01T08:46:59;13.88;;;2.58;;
65835;SDS011;52595;51.608;7.216;2023-02-01T08:49:24;14.88;;;3.10;;
65835;SDS011;52595;51.608;7.216;2023-02-01T08:51:49;14.23;;;4.30;;
65835;SDS011;52595;51.608;7.216;2023-02-01T08:54:15;21.60;;;4.63;;
65835;SDS011;52595;51.608;7.216;2023-02-01T08:56:40;15.50;;;3.65;;
65835;SDS011;52595;51.608;7.216;2023-02-01T08:59:05;16.92;;;3.38;;
65835;SDS011;52595;51.608;7.216;2023-02-01T09:01:31;13.73;;;3.10;;
65835;SDS011;52595;51.608;7.216;2023-02-01T09:03:56;16.63;;;3.55;;
65835;SDS011;52595;51.608;7.216;2023-02-01T09:06:21;15.50;;;3.38;;
65835;SDS011;52595;51.608;7.216;2023-02-01T09:08:47;16.92;;;3.55;;
65835;SDS011;52595;51.608;7.216;2023-02-01T09:11:13;13.45;;;3.75;;
65835;SDS011;52595;51.608;7.216;2023-02-01T09:13:40;13.95;;;2.58;;
65835;SDS011;52595;51.608;7.216;2023-02-01T09:16:06;12.48;;;2.85;;
65835;SDS011;52595;51.608;7.216;2023-02-01T09:18:32;10.98;;;3.53;;
65835;SDS011;52595;51.608;7.216;2023-02-01T09:20:57;14.38;;;3.40;;
65835;SDS011;52595;51.608;7.216;2023-02-01T09:23:23;12.45;;;3.28;;
65835;SDS011;52595;51.608;7.216;2023-02-01T09:25:48;18.80;;;3.70;;
65835;SDS011;52595;51.608;7.216;2023-02-01T09:28:16;16.30;;;4.00;;
65835;SDS011;52595;51.608;7.216;2023-02-01T09:30:42;13.68;;;3.58;;
65835;SDS011;52595;51.608;7.216;2023-02-01T09:33:07;12.25;;;3.08;;
65835;SDS011;52595;51.608;7.216;2023-02-01T09:35:32;18.30;;;3.97;;
65835;SDS011;52595;51.608;7.216;2023-02-01T09:37:58;10.43;;;3.28;;
65835;SDS011;52595;51.608;7.216;2023-02-01T09:40:23;14.27;;;3.05;;
65835;SDS011;52595;51.608;7.216;2023-02-01T09:48:20;17.63;;;3.53;;
65835;SDS011;52595;51.608;7.216;2023-02-01T09:50:55;17.33;;;4.35;;
65835;SDS011;52595;51.608;7.216;2023-02-01T09:53:33;12.82;;;3.25;;
65835;SDS011;52595;51.608;7.216;2023-02-01T09:56:03;12.45;;;3.60;;
65835;SDS011;52595;51.608;7.216;2023-02-01T10:01:05;14.77;;;3.38;;
65835;SDS011;52595;51.608;7.216;2023-02-01T10:03:36;14.95;;;4.43;;
65835;SDS011;52595;51.608;7.216;2023-02-01T10:11:39;17.70;;;4.55;;
65835;SDS011;52595;51.608;7.216;2023-02-01T10:17:16;11.35;;;3.53;;
65835;SDS011;52595;51.608;7.216;2023-02-01T10:22:29;11.15;;;3.63;;
65835;SDS011;52595;51.608;7.216;2023-02-01T10:25:17;11.38;;;3.65;;
65835;SDS011;52595;51.608;7.216;2023-02-01T10:27:57;20.65;;;4.80;;
65835;SDS011;52595;51.608;7.216;2023-02-01T10:30:27;12.52;;;3.25;;
65835;SDS011;52595;51.608;7.216;2023-02-01T10:33:59;20.98;;;4.55;;
65835;SDS011;52595;51.608;7.216;2023-02-01T10:36:28;18.27;;;4.93;;
65835;SDS011;52595;51.608;7.216;2023-02-01T10:39:00;12.57;;;2.67;;
65835;SDS011;52595;51.608;7.216;2023-02-01T10:41:30;15.45;;;4.07;;
65835;SDS011;52595;51.608;7.216;2023-02-01T10:43:58;12.10;;;3.33;;
65835;SDS011;52595;51.608;7.216;2023-02-01T10:46:24;11.73;;;3.30;;
65835;SDS011;52595;51.608;7.216;2023-02-01T10:48:51;13.02;;;3.38;;
65835;SDS011;52595;51.608;7.216;2023-02-01T10:51:23;18.35;;;3.70;;
65835;SDS011;52595;51.608;7.216;2023-02-01T10:53:58;13.48;;;3.78;;
65835;SDS011;52595;51.608;7.216;2023-02-01T10:56:34;11.52;;;4.25;;
65835;SDS011;52595;51.608;7.216;2023-02-01T10:59:05;16.52;;;3.60;;
65835;SDS011;52595;51.608;7.216;2023-02-01T11:01:40;20.50;;;4.13;;
65835;SDS011;52595;51.608;7.216;2023-02-01T11:04:09;8.95;;;2.88;;
65835;SDS011;52595;51.608;7.216;2023-02-01T11:09:34;15.10;;;4.05;;
65835;SDS011;52595;51.608;7.216;2023-02-01T11:12:04;24.13;;;4.65;;
65835;SDS011;52595;51.608;7.216;2023-02-01T11:14:39;17.95;;;3.53;;
65835;SDS011;52595;51.608;7.216;2023-02-01T11:19:43;15.27;;;3.45;;
65835;SDS011;52595;51.608;7.216;2023-02-01T11:22:20;13.88;;;3.63;;
65835;SDS011;52595;51.608;7.216;2023-02-01T11:24:46;15.52;;;3.55;;
65835;SDS011;52595;51.608;7.216;2023-02-01T11:27:16;17.48;;;3.60;;
65835;SDS011;52595;51.608;7.216;2023-02-01T11:29:45;16.70;;;3.60;;
65835;SDS011;52595;51.608;7.216;2023-02-01T11:32:15;12.27;;;2.95;;
65835;SDS011;52595;51.608;7.216;2023-02-01T11:34:44;11.13;;;3.53;;
65835;SDS011;52595;51.608;7.216;2023-02-01T11:37:20;12.55;;;3.45;;
65835;SDS011;52595;51.608;7.216;2023-02-01T11:39:55;14.75;;;4.10;;
65835;SDS011;52595;51.608;7.216;2023-02-01T11:42:26;10.80;;;3.15;;
65835;SDS011;52595;51.608;7.216;2023-02-01T11:48:08;18.38;;;4.45;;
65835;SDS011;52595;51.608;7.216;2023-02-01T11:56:23;12.75;;;4.32;;
65835;SDS011;52595;51.608;7.216;2023-02-01T12:07:41;17.38;;;4.15;;
65835;SDS011;52595;51.608;7.216;2023-02-01T12:13:02;8.53;;;3.00;;
65835;SDS011;52595;51.608;7.216;2023-02-01T12:21:15;13.18;;;3.90;;
65835;SDS011;52595;51.608;7.216;2023-02-01T12:26:47;12.77;;;3.55;;
65835;SDS011;52595;51.608;7.216;2023-02-01T12:32:15;13.52;;;3.85;;
65835;SDS011;52595;51.608;7.216;2023-02-01T12:38:13;13.52;;;3.38;;
65835;SDS011;52595;51.608;7.216;2023-02-01T12:41:03;15.02;;;3.25;;
65835;SDS011;52595;51.608;7.216;2023-02-01T12:43:43;14.50;;;3.42;;
65835;SDS011;52595;51.608;7.216;2023-02-01T12:46:11;10.90;;;2.65;;
65835;SDS011;52595;51.608;7.216;2023-02-01T12:48:58;12.02;;;2.95;;
65835;SDS011;52595;51.608;7.216;2023-02-01T12:51:44;13.27;;;2.63;;
65835;SDS011;52595;51.608;7.216;2023-02-01T12:54:19;12.40;;;3.33;;
65835;SDS011;52595;51.608;7.216;2023-02-01T12:56:49;11.07;;;3.05;;
65835;SDS011;52595;51.608;7.216;2023-02-01T13:01:57;11.20;;;3.03;;
65835;SDS011;52595;51.608;7.216;2023-02-01T13:04:33;10.88;;;2.60;;
65835;SDS011;52595;51.608;7.216;2023-02-01T13:07:10;9.80;;;2.35;;
65835;SDS011;52595;51.608;7.216;2023-02-01T13:09:49;13.52;;;2.90;;
65835;SDS011;52595;51.608;7.216;2023-02-01T13:12:26;7.78;;;2.70;;
65835;SDS011;52595;51.608;7.216;2023-02-01T13:14:58;10.20;;;2.40;;
65835;SDS011;52595;51.608;7.216;2023-02-01T13:17:30;17.92;;;3.08;;
65835;SDS011;52595;51.608;7.216;2023-02-01T13:22:43;8.88;;;2.35;;
65835;SDS011;52595;51.608;7.216;2023-02-01T13:25:12;13.30;;;3.17;;
65835;SDS011;52595;51.608;7.216;2023-02-01T13:27:41;9.35;;;2.47;;
65835;SDS011;52595;51.608;7.216;2023-02-01T13:36:02;12.70;;;2.58;;
65835;SDS011;52595;51.608;7.216;2023-02-01T13:41:24;11.63;;;2.53;;
65835;SDS011;52595;51.608;7.216;2023-02-01T13:44:03;10.23;;;2.35;;
65835;SDS011;52595;51.608;7.216;2023-02-01T13:46:39;15.75;;;3.13;;
65835;SDS011;52595;51.608;7.216;2023-02-01T13:49:07;10.63;;;2.58;;
65835;SDS011;52595;51.608;7.216;2023-02-01T13:51:49;14.07;;;2.58;;
65835;SDS011;52595;51.608;7.216;2023-02-01T13:54:24;9.65;;;2.67;;
65835;SDS011;52595;51.608;7.216;2023-02-01T13:56:50;11.63;;;2.30;;
65835;SDS011;52595;51.608;7.216;2023-02-01T14:23:44;9.55;;;3.25;;
65835;SDS011;52595;51.608;7.216;2023-02-01T14:26:57;11.15;;;2.58;;
65835;SDS011;52595;51.608;7.216;2023-02-01T14:34:39;16.38;;;3.45;;
65835;SDS011;52595;51.608;7.216;2023-02-01T14:42:27;15.13;;;3.75;;
65835;SDS011;52595;51.608;7.216;2023-02-01T14:58:00;12.98;;;3.35;;
65835;SDS011;52595;51.608;7.216;2023-02-01T15:00:28;5.80;;;2.17;;
65835;SDS011;52595;51.608;7.216;2023-02-01T15:03:00;15.20;;;3.38;;
65835;SDS011;52595;51.608;7.216;2023-02-01T15:05:38;14.30;;;3.42;;
65835;SDS011;52595;51.608;7.216;2023-02-01T15:08:12;18.33;;;3.42;;
65835;SDS011;52595;51.608;7.216;2023-02-01T15:10:43;11.55;;;2.70;;
65835;SDS011;52595;51.608;7.216;2023-02-01T15:13:24;14.35;;;3.17;;
65835;SDS011;52595;51.608;7.216;2023-02-01T15:16:11;8.95;;;2.83;;
65835;SDS011;52595;51.608;7.216;2023-02-01T15:18:38;13.98;;;3.17;;
65835;SDS011;52595;51.608;7.216;2023-02-01T15:21:05;7.68;;;2.78;;
65835;SDS011;52595;51.608;7.216;2023-02-01T15:23:32;11.10;;;2.55;;
65835;SDS011;52595;51.608;7.216;2023-02-01T15:25:58;18.70;;;3.30;;
65835;SDS011;52595;51.608;7.216;2023-02-01T15:28:24;12.50;;;2.92;;
65835;SDS011;52595;51.608;7.216;2023-02-01T15:31:01;12.73;;;2.75;;
65835;SDS011;52595;51.608;7.216;2023-02-01T15:33:29;14.88;;;2.88;;
65835;SDS011;52595;51.608;7.216;2023-02-01T15:38:31;12.00;;;3.15;;
65835;SDS011;52595;51.608;7.216;2023-02-01T15:43:34;7.70;;;2.65;;
65835;SDS011;52595;51.608;7.216;2023-02-01T15:46:10;9.43;;;2.70;;
65835;SDS011;52595;51.608;7.216;2023-02-01T15:48:39;8.57;;;2.55;;
65835;SDS011;52595;51.608;7.216;2023-02-01T15:51:11;10.20;;;2.78;;
65835;SDS011;52595;51.608;7.216;2023-02-01T15:53:39;13.82;;;2.42;;
65835;SDS011;52595;51.608;7.216;2023-02-01T15:58:35;12.73;;;2.88;;
65835;SDS011;52595;51.608;7.216;2023-02-01T16:01:01;16.08;;;3.55;;
65835;SDS011;52595;51.608;7.216;2023-02-01T16:05:59;10.02;;;2.30;;
65835;SDS011;52595;51.608;7.216;2023-02-01T16:08:27;9.85;;;2.90;;
65835;SDS011;52595;51.608;7.216;2023-02-01T16:10:58;9.73;;;2.65;;
65835;SDS011;52595;51.608;7.216;2023-02-01T16:13:27;13.05;;;3.35;;
65835;SDS011;52595;51.608;7.216;2023-02-01T16:15:52;9.48;;;3.15;;
65835;SDS011;52595;51.608;7.216;2023-02-01T16:18:17;12.57;;;3.17;;
65835;SDS011;52595;51.608;7.216;2023-02-01T16:20:43;10.40;;;2.88;;
65835;SDS011;52595;51.608;7.216;2023-02-01T16:23:09;10.90;;;3.03;;
65835;SDS011;52595;51.608;7.216;2023-02-01T16:25:36;14.35;;;3.28;;
65835;SDS011;52595;51.608;7.216;2023-02-01T16:28:02;10.48;;;2.53;;
65835;SDS011;52595;51.608;7.216;2023-02-01T16:30:27;14.23;;;2.80;;
65835;SDS011;52595;51.608;7.216;2023-02-01T16:32:56;17.48;;;3.95;;
65835;SDS011;52595;51.608;7.216;2023-02-01T16:35:37;15.70;;;4.15;;
65835;SDS011;52595;51.608;7.216;2023-02-01T16:40:38;20.38;;;3.92;;
65835;SDS011;52595;51.608;7.216;2023-02-01T16:43:07;13.40;;;3.80;;
65835;SDS011;52595;51.608;7.216;2023-02-01T16:45:40;19.70;;;4.72;;
65835;SDS011;52595;51.608;7.216;2023-02-01T16:48:10;12.98;;;4.20;;
65835;SDS011;52595;51.608;7.216;2023-02-01T16:50:45;20.15;;;5.18;;
65835;SDS011;52595;51.608;7.216;2023-02-01T16:53:12;18.70;;;5.75;;
65835;SDS011;52595;51.608;7.216;2023-02-01T16:55:39;10.55;;;3.13;;
65835;SDS011;52595;51.608;7.216;2023-02-01T16:58:04;4.93;;;2.30;;
65835;SDS011;52595;51.608;7.216;2023-02-01T17:00:30;11.23;;;3.47;;
65835;SDS011;52595;51.608;7.216;2023-02-01T17:02:58;9.10;;;2.10;;
65835;SDS011;52595;51.608;7.216;2023-02-01T17:05:24;5.57;;;1.70;;
65835;SDS011;52595;51.608;7.216;2023-02-01T17:07:50;8.48;;;2.45;;
65835;SDS011;52595;51.608;7.216;2023-02-01T17:10:18;5.13;;;2.20;;
65835;SDS011;52595;51.608;7.216;2023-02-01T17:15:12;7.53;;;2.20;;
65835;SDS011;52595;51.608;7.216;2023-02-01T17:17:38;8.93;;;1.85;;
65835;SDS011;52595;51.608;7.216;2023-02-01T17:20:07;8.77;;;2.20;;
65835;SDS011;52595;51.608;7.216;2023-02-01T17:22:42;3.65;;;2.00;;
65835;SDS011;52595;51.608;7.216;2023-02-01T17:25:13;9.60;;;2.40;;
65835;SDS011;52595;51.608;7.216;2023-02-01T17:27:41;10.80;;;2.80;;
65835;SDS011;52595;51.608;7.216;2023-02-01T17:30:07;8.88;;;2.35;;
65835;SDS011;52595;51.608;7.216;2023-02-01T17:32:35;10.05;;;3.15;;
65835;SDS011;52595;51.608;7.216;2023-02-01T17:35:00;8.18;;;2.70;;
65835;SDS011;52595;51.608;7.216;2023-02-01T17:37:27;6.43;;;2.63;;
65835;SDS011;52595;51.608;7.216;2023-02-01T17:39:53;10.75;;;3.10;;
65835;SDS011;52595;51.608;7.216;2023-02-01T17:42:19;17.35;;;3.58;;